Time;durP1;ratioP1;P1;durP2;ratioP2;P2;SDS_P1;SDS_P2;PMS_P1;PMS_P2;Temp;Humidity;BMP_temperature;BMP_pressure;BME280_temperature;BME280_humidity;BME280_pressure;Samples;Min_cycle;Max_cycle;Signal;HPM_P1;HPM_P2
2022/07/01 00:00:46;;;;;;;;;;;;;;;;;;2066457;28;19917;-84
2022/07/01 00:01:49;;;;;;;;;;;;;;;;;;2074167;28;19924;-86
2022/07/01 00:02:49;;;;;;;;;;;;;;;;;;2074038;28;19913;-85
2022/07/01 00:03:50;;;;;;;;;;;;;;;;;;2066586;28;20394;-86
2022/07/01 00:04:51;;;;;;;;;;;;;;;;;;2066812;28;19957;-86
2022/07/01 00:05:51;;;;;;;;;;;;;;;;;;2066628;28;19988;-85
2022/07/01 00:06:51;;;;;;;;;;;;;;;;;;2066703;28;19929;-85
2022/07/01 00:07:51;;;;;;;;;;;;;;;;;;2066472;28;20371;-86
2022/07/01 00:08:52;;;;;;;;;;;;;;;;;;2074170;28;20031;-86
2022/07/01 00:09:52;;;;;;;;;;;;;;;;;;2074124;28;19918;-85
2022/07/01 00:10:52;;;;;;;;;;;;;;;;;;2066577;28;20414;-85
2022/07/01 00:11:52;;;;;;;;;;;;;;;;;;2066555;28;20330;-85
2022/07/01 00:12:53;;;;;;;;;;;;;;;;;;2068220;28;20020;-85
2022/07/01 00:13:53;;;;;;;;;;;;;;;;;;2068887;28;19913;-84
2022/07/01 00:14:59;;;;;;;;;;;;;;;;;;2069799;28;20367;-85
2022/07/01 00:15:59;;;;;;;;;;;;;;;;;;2071224;28;19957;-85
2022/07/01 00:16:59;;;;;;;;;;;;;;;;;;2070857;28;20294;-84
2022/07/01 00:17:59;;;;;;;;;;;;;;;;;;2077597;28;19920;-83
2022/07/01 00:19:00;;;;;;;;;;;;;;;;;;2076611;28;19914;-85
2022/07/01 00:20:02;;;;;;;;;;;;;;;;;;2068551;28;20393;-85
2022/07/01 00:21:06;;;;;;;;;;;;;;;;;;2068170;28;19917;-83
2022/07/01 00:22:07;;;;;;;;;;;;;;;;;;2067883;28;19964;-84
2022/07/01 00:23:07;;;;;;;;;;;;;;;;;;2074293;28;19960;-86
2022/07/01 00:24:07;;;;;;;;;;;;;;;;;;2074576;28;19913;-84
2022/07/01 00:25:08;;;;;;;;;;;;;;;;;;2066681;28;19921;-85
2022/07/01 00:26:08;;;;;;;;;;;;;;;;;;2066733;28;19956;-86
2022/07/01 00:27:09;;;;;;;;;;;;;;;;;;2067398;28;19921;-86
2022/07/01 00:28:12;;;;;;;;;;;;;;;;;;2067468;28;19914;-85
2022/07/01 00:29:12;;;;;;;;;;;;;;;;;;2066397;28;19985;-84
2022/07/01 00:30:12;;;;;;;;;;;;;;;;;;2066173;28;20013;-86
2022/07/01 00:31:13;;;;;;;;;;;;;;;;;;2066571;28;19914;-85
2022/07/01 00:32:13;;;;;;;;;;;;;;;;;;2066346;28;20325;-85
2022/07/01 00:33:13;;;;;;;;;;;;;;;;;;2073907;28;19913;-85
2022/07/01 00:34:14;;;;;;;;;;;;;;;;;;2073949;28;19913;-85
2022/07/01 00:35:14;;;;;;;;;;;;;;;;;;2066245;28;19921;-85
2022/07/01 00:36:14;;;;;;;;;;;;;;;;;;2066125;28;20390;-86
2022/07/01 00:37:14;;;;;;;;;;;;;;;;;;2066161;28;20272;-86
2022/07/01 00:38:14;;;;;;;;;;;;;;;;;;2066187;28;19949;-85
2022/07/01 00:39:15;;;;;;;;;;;;;;;;;;2066356;28;19937;-86
2022/07/01 00:40:15;;;;;;;;;;;;;;;;;;2066093;28;20287;-86
2022/07/01 00:41:16;;;;;;;;;;;;;;;;;;2066330;28;20016;-86
2022/07/01 00:42:16;;;;;;;;;;;;;;;;;;2066335;28;19928;-87
2022/07/01 00:43:17;;;;;;;;;;;;;;;;;;2066044;28;20347;-86
2022/07/01 00:44:18;;;;;;;;;;;;;;;;;;2073949;28;20185;-86
2022/07/01 00:45:19;;;;;;;;;;;;;;;;;;2073934;28;20338;-87
2022/07/01 00:46:19;;;;;;;;;;;;;;;;;;2066526;28;19914;-87
2022/07/01 00:47:20;;;;;;;;;;;;;;;;;;2066091;28;19961;-88
2022/07/01 00:48:21;;;;;;;;;;;;;;;;;;2073685;28;19967;-88
2022/07/01 00:49:22;;;;;;;;;;;;;;;;;;2074236;28;19913;-89
2022/07/01 00:50:22;;;;;;;;;;;;;;;;;;2066326;28;19917;-88
2022/07/01 00:51:22;;;;;;;;;;;;;;;;;;2066011;28;19921;-84
2022/07/01 00:52:23;;;;;;;;;;;;;;;;;;2066179;28;19925;-86
2022/07/01 00:53:23;;;;;;;;;;;;;;;;;;2073794;28;19913;-88
2022/07/01 00:54:23;;;;;;;;;;;;;;;;;;2073977;28;19923;-87
2022/07/01 00:55:27;;;;;;;;;;;;;;;;;;2066166;28;19960;-87
2022/07/01 00:56:27;;;;;;;;;;;;;;;;;;2066051;28;20318;-87
2022/07/01 00:57:30;;;;;;;;;;;;;;;;;;2073611;28;19943;-89
2022/07/01 00:58:31;;;;;;;;;;;;;;;;;;2073497;28;19913;-88
2022/07/01 00:59:32;;;;;;;;;;;;;;;;;;2065975;28;19917;-85
2022/07/01 01:00:32;;;;;;;;;;;;;;;;;;2066014;28;19937;-85
2022/07/01 01:01:32;;;;;;;;;;;;;;;;;;2066051;28;19929;-87
2022/07/01 01:02:33;;;;;;;;;;;;;;;;;;2065990;28;19914;-87
2022/07/01 01:03:33;;;;;;;;;;;;;;;;;;2065948;28;19960;-87
2022/07/01 01:04:34;;;;;;;;;;;;;;;;;;2066091;28;20089;-86
2022/07/01 01:05:34;;;;;;;;;;;;;;;;;;2073516;28;19932;-89
2022/07/01 01:06:34;;;;;;;;;;;;;;;;;;2073456;28;20367;-88
2022/07/01 01:07:35;;;;;;;;;;;;;;;;;;2066053;28;20303;-84
2022/07/01 01:08:36;;;;;;;;;;;;;;;;;;2066316;28;19933;-88
2022/07/01 01:09:36;;;;;;;;;;;;;;;;;;2066946;28;20635;-88
2022/07/01 01:10:37;;;;;;;;;;;;;;;;;;2066178;28;19913;-86
2022/07/01 01:11:37;;;;;;;;;;;;;;;;;;2066252;28;20024;-87
2022/07/01 01:12:38;;;;;;;;;;;;;;;;;;2065598;28;19983;-86
2022/07/01 01:13:38;;;;;;;;;;;;;;;;;;2065659;28;19924;-86
2022/07/01 01:14:45;;;;;;;;;;;;;;;;;;2065279;28;19924;-86
2022/07/01 01:15:46;;;;;;;;;;;;;;;;;;2058011;28;20329;-85
2022/07/01 01:16:48;;;;;;;;;;;;;;;;;;2065271;28;20046;-84
2022/07/01 01:17:49;;;;;;;;;;;;;;;;;;2065947;28;20394;-87
2022/07/01 01:18:49;;;;;;;;;;;;;;;;;;2065939;28;19933;-87
2022/07/01 01:19:50;;;;;;;;;;;;;;;;;;2065479;28;19914;-85
2022/07/01 01:20:51;;;;;;;;;;;;;;;;;;2065162;28;19917;-87
2022/07/01 01:21:53;;;;;;;;;;;;;;;;;;2073203;28;19971;-85
2022/07/01 01:22:53;;;;;;;;;;;;;;;;;;2065704;28;19913;-86
2022/07/01 01:23:53;;;;;;;;;;;;;;;;;;2066043;28;20364;-89
2022/07/01 01:24:53;;;;;;;;;;;;;;;;;;2065679;28;19914;-88
2022/07/01 01:25:54;;;;;;;;;;;;;;;;;;2065723;28;19913;-87
2022/07/01 01:26:59;;;;;;;;;;;;;;;;;;2065112;28;19914;-87
2022/07/01 01:28:00;;;;;;;;;;;;;;;;;;2068179;28;19914;-86
2022/07/01 01:29:00;;;;;;;;;;;;;;;;;;2065617;28;19922;-86
2022/07/01 01:30:01;;;;;;;;;;;;;;;;;;2065827;28;19925;-86
2022/07/01 01:31:01;;;;;;;;;;;;;;;;;;2065982;28;19921;-87
2022/07/01 01:32:02;;;;;;;;;;;;;;;;;;2065917;28;19914;-87
2022/07/01 01:33:02;;;;;;;;;;;;;;;;;;2065944;28;19914;-88
2022/07/01 01:34:03;;;;;;;;;;;;;;;;;;2066072;28;20024;-87
2022/07/01 01:35:03;;;;;;;;;;;;;;;;;;2065818;28;19957;-87
2022/07/01 01:36:06;;;;;;;;;;;;;;;;;;2066110;28;19917;-87
2022/07/01 01:37:07;;;;;;;;;;;;;;;;;;2066148;28;20514;-86
2022/07/01 01:38:08;;;;;;;;;;;;;;;;;;2066376;28;20000;-86
2022/07/01 01:40:09;;;;;;;;;;;;;;;;;;2073856;28;19956;-83
2022/07/01 01:41:09;;;;;;;;;;;;;;;;;;2066142;28;19917;-85
2022/07/01 01:42:10;;;;;;;;;;;;;;;;;;2065715;28;20351;-86
2022/07/01 01:43:10;;;;;;;;;;;;;;;;;;2065801;28;20252;-84
2022/07/01 01:44:10;;;;;;;;;;;;;;;;;;2065760;28;19926;-84
2022/07/01 01:45:11;;;;;;;;;;;;;;;;;;2065894;28;20349;-84
2022/07/01 01:46:11;;;;;;;;;;;;;;;;;;2065714;28;19914;-86
2022/07/01 01:47:12;;;;;;;;;;;;;;;;;;2065806;28;20052;-85
2022/07/01 01:48:12;;;;;;;;;;;;;;;;;;2065718;28;20435;-85
2022/07/01 01:49:12;;;;;;;;;;;;;;;;;;2065576;28;20072;-85
2022/07/01 01:50:13;;;;;;;;;;;;;;;;;;2065797;28;19918;-84
2022/07/01 01:51:14;;;;;;;;;;;;;;;;;;2065783;28;19914;-88
2022/07/01 01:52:14;;;;;;;;;;;;;;;;;;2065764;28;19921;-85
2022/07/01 01:53:14;;;;;;;;;;;;;;;;;;2065662;28;19965;-85
2022/07/01 01:54:17;;;;;;;;;;;;;;;;;;2065650;28;20332;-86
2022/07/01 01:55:17;;;;;;;;;;;;;;;;;;2065907;28;20005;-87
2022/07/01 01:56:18;;;;;;;;;;;;;;;;;;2065473;28;20262;-87
2022/07/01 01:57:18;;;;;;;;;;;;;;;;;;2065347;28;19914;-85
2022/07/01 01:58:18;;;;;;;;;;;;;;;;;;2065843;28;19922;-88
2022/07/01 01:59:19;;;;;;;;;;;;;;;;;;2066095;28;20286;-87
2022/07/01 02:00:19;;;;;;;;;;;;;;;;;;2065676;28;19925;-86
2022/07/01 02:01:19;;;;;;;;;;;;;;;;;;2065581;28;19913;-86
2022/07/01 02:02:19;;;;;;;;;;;;;;;;;;2065899;28;19918;-90
2022/07/01 02:03:20;;;;;;;;;;;;;;;;;;2065759;28;19914;-86
2022/07/01 02:04:20;;;;;;;;;;;;;;;;;;2065480;28;20351;-85
2022/07/01 02:05:21;;;;;;;;;;;;;;;;;;2065809;28;20374;-83
2022/07/01 02:06:22;;;;;;;;;;;;;;;;;;2065506;28;20373;-84
2022/07/01 02:07:22;;;;;;;;;;;;;;;;;;2073260;28;20385;-84
2022/07/01 02:08:22;;;;;;;;;;;;;;;;;;2073527;28;20004;-85
2022/07/01 02:09:22;;;;;;;;;;;;;;;;;;2074596;28;20463;-84
2022/07/01 02:10:23;;;;;;;;;;;;;;;;;;2074948;28;19925;-84
2022/07/01 02:11:23;;;;;;;;;;;;;;;;;;2067274;28;20306;-85
2022/07/01 02:12:23;;;;;;;;;;;;;;;;;;2067230;28;20259;-85
2022/07/01 02:13:24;;;;;;;;;;;;;;;;;;2067321;28;19957;-84
2022/07/01 02:14:24;;;;;;;;;;;;;;;;;;2067438;28;19972;-86
2022/07/01 02:15:24;;;;;;;;;;;;;;;;;;2074601;28;19924;-85
2022/07/01 02:16:24;;;;;;;;;;;;;;;;;;2074975;28;19979;-85
2022/07/01 02:17:26;;;;;;;;;;;;;;;;;;2067223;28;20001;-85
2022/07/01 02:18:26;;;;;;;;;;;;;;;;;;2067538;28;19953;-85
2022/07/01 02:19:26;;;;;;;;;;;;;;;;;;2067020;28;19917;-85
2022/07/01 02:20:26;;;;;;;;;;;;;;;;;;2067431;28;20414;-86
2022/07/01 02:21:28;;;;;;;;;;;;;;;;;;2067345;28;19975;-87
2022/07/01 02:22:28;;;;;;;;;;;;;;;;;;2067298;28;19940;-87
2022/07/01 02:23:29;;;;;;;;;;;;;;;;;;2074849;28;20361;-87
2022/07/01 02:24:29;;;;;;;;;;;;;;;;;;2066290;28;20016;-86
2022/07/01 02:25:29;;;;;;;;;;;;;;;;;;2066242;28;19914;-85
2022/07/01 02:26:30;;;;;;;;;;;;;;;;;;2067044;28;19921;-85
2022/07/01 02:27:30;;;;;;;;;;;;;;;;;;2066729;28;20003;-84
2022/07/01 02:28:30;;;;;;;;;;;;;;;;;;2066601;28;19925;-85
2022/07/01 02:29:30;;;;;;;;;;;;;;;;;;2066284;28;20016;-85
2022/07/01 02:30:35;;;;;;;;;;;;;;;;;;2066433;28;20003;-85
2022/07/01 02:31:35;;;;;;;;;;;;;;;;;;2066941;28;19927;-85
2022/07/01 02:32:35;;;;;;;;;;;;;;;;;;2067160;28;19924;-86
2022/07/01 02:33:35;;;;;;;;;;;;;;;;;;2067111;28;20036;-86
2022/07/01 02:34:36;;;;;;;;;;;;;;;;;;2067215;28;20009;-88
2022/07/01 02:35:37;;;;;;;;;;;;;;;;;;2067035;28;20282;-85
2022/07/01 02:36:37;;;;;;;;;;;;;;;;;;2066867;28;20363;-87
2022/07/01 02:37:38;;;;;;;;;;;;;;;;;;2066304;28;20250;-85
2022/07/01 02:38:38;;;;;;;;;;;;;;;;;;2058589;28;19918;-86
2022/07/01 02:39:38;;;;;;;;;;;;;;;;;;2066679;28;20326;-87
2022/07/01 02:40:39;;;;;;;;;;;;;;;;;;2066840;28;19924;-85
2022/07/01 02:42:58;;;;;;;;;;;;;;;;;;2066817;28;19945;-84
2022/07/01 02:43:59;;;;;;;;;;;;;;;;;;2066610;28;19913;-85
2022/07/01 02:44:59;;;;;;;;;;;;;;;;;;2067158;28;19921;-86
2022/07/01 02:45:59;;;;;;;;;;;;;;;;;;2066934;28;20381;-87
2022/07/01 02:46:59;;;;;;;;;;;;;;;;;;2066978;28;19914;-88
2022/07/01 02:48:01;;;;;;;;;;;;;;;;;;2067132;28;19972;-86
2022/07/01 02:49:02;;;;;;;;;;;;;;;;;;2066803;28;19918;-87
2022/07/01 02:50:06;;;;;;;;;;;;;;;;;;2066640;28;19920;-85
2022/07/01 02:51:06;;;;;;;;;;;;;;;;;;2067145;28;19917;-85
2022/07/01 02:52:07;;;;;;;;;;;;;;;;;;2074870;28;19913;-85
2022/07/01 02:53:07;;;;;;;;;;;;;;;;;;2074532;28;20194;-86
2022/07/01 02:54:07;;;;;;;;;;;;;;;;;;2066737;28;19918;-84
2022/07/01 02:55:09;;;;;;;;;;;;;;;;;;2066657;28;19914;-85
2022/07/01 02:56:09;;;;;;;;;;;;;;;;;;2066483;28;19976;-86
2022/07/01 02:57:09;;;;;;;;;;;;;;;;;;2066214;28;20366;-85
2022/07/01 02:58:09;;;;;;;;;;;;;;;;;;2066304;28;19914;-84
2022/07/01 02:59:12;;;;;;;;;;;;;;;;;;2066494;28;19913;-85
2022/07/01 03:00:13;;;;;;;;;;;;;;;;;;2066889;28;20311;-85
2022/07/01 03:01:13;;;;;;;;;;;;;;;;;;2074017;28;19913;-85
2022/07/01 03:02:14;;;;;;;;;;;;;;;;;;2074550;28;19932;-86
2022/07/01 03:03:14;;;;;;;;;;;;;;;;;;2066338;28;19914;-88
2022/07/01 03:04:15;;;;;;;;;;;;;;;;;;2067097;28;19920;-84
2022/07/01 03:05:15;;;;;;;;;;;;;;;;;;2067088;28;19924;-85
2022/07/01 03:06:15;;;;;;;;;;;;;;;;;;2074271;28;20353;-86
2022/07/01 03:07:16;;;;;;;;;;;;;;;;;;2074299;28;19913;-86
2022/07/01 03:08:16;;;;;;;;;;;;;;;;;;2066949;28;20007;-87
2022/07/01 03:09:17;;;;;;;;;;;;;;;;;;2066558;28;19918;-87
2022/07/01 03:10:17;;;;;;;;;;;;;;;;;;2066554;28;20000;-85
2022/07/01 03:11:17;;;;;;;;;;;;;;;;;;2066960;28;19914;-87
2022/07/01 03:12:29;;;;;;;;;;;;;;;;;;2066878;28;19948;-86
2022/07/01 03:13:30;;;;;;;;;;;;;;;;;;2066845;28;19925;-87
2022/07/01 03:14:30;;;;;;;;;;;;;;;;;;2074181;28;19952;-85
2022/07/01 03:15:30;;;;;;;;;;;;;;;;;;2074471;28;19917;-85
2022/07/01 03:16:31;;;;;;;;;;;;;;;;;;2066691;28;19940;-86
2022/07/01 03:17:32;;;;;;;;;;;;;;;;;;2066678;28;20343;-85
2022/07/01 03:18:32;;;;;;;;;;;;;;;;;;2066921;28;20005;-85
2022/07/01 03:19:33;;;;;;;;;;;;;;;;;;2066882;28;20323;-85
2022/07/01 03:20:33;;;;;;;;;;;;;;;;;;2065311;28;19937;-84
2022/07/01 03:21:33;;;;;;;;;;;;;;;;;;2074683;28;20342;-85
2022/07/01 03:22:34;;;;;;;;;;;;;;;;;;2074276;28;19914;-85
2022/07/01 03:25:00;;;;;;;;;;;;;;;;;;2059255;28;19968;-85
2022/07/01 03:26:00;;;;;;;;;;;;;;;;;;2066651;28;19918;-87
2022/07/01 03:27:33;;;;;;;;;;;;;;;;;;2066420;28;19941;-89
2022/07/01 03:28:34;;;;;;;;;;;;;;;;;;2062215;28;19924;-88
2022/07/01 03:29:57;;;;;;;;;;;;;;;;;;2066066;28;20299;-86
2022/07/01 03:31:06;;;;;;;;;;;;;;;;;;2065666;28;20267;-86
2022/07/01 03:32:30;;;;;;;;;;;;;;;;;;2074073;28;19925;-87
2022/07/01 03:33:30;;;;;;;;;;;;;;;;;;2071051;28;19917;-88
2022/07/01 03:34:30;;;;;;;;;;;;;;;;;;2066566;28;19914;-85
2022/07/01 03:35:38;;;;;;;;;;;;;;;;;;2066578;28;19979;-87
2022/07/01 03:36:41;;;;;;;;;;;;;;;;;;2066293;28;19993;-86
2022/07/01 03:37:41;;;;;;;;;;;;;;;;;;2066572;28;19932;-85
2022/07/01 03:38:43;;;;;;;;;;;;;;;;;;2066383;28;20508;-85
2022/07/01 03:39:43;;;;;;;;;;;;;;;;;;2066649;28;19917;-85
2022/07/01 03:40:43;;;;;;;;;;;;;;;;;;2066382;28;20290;-85
2022/07/01 03:41:44;;;;;;;;;;;;;;;;;;2066614;28;19976;-85
2022/07/01 03:42:44;;;;;;;;;;;;;;;;;;2066371;28;20004;-85
2022/07/01 03:43:44;;;;;;;;;;;;;;;;;;2066622;28;19976;-85
2022/07/01 03:44:45;;;;;;;;;;;;;;;;;;2066616;28;19975;-85
2022/07/01 03:45:45;;;;;;;;;;;;;;;;;;2066511;28;20355;-85
2022/07/01 03:46:46;;;;;;;;;;;;;;;;;;2066056;28;20282;-85
2022/07/01 03:47:46;;;;;;;;;;;;;;;;;;2066612;28;19918;-84
2022/07/01 03:48:47;;;;;;;;;;;;;;;;;;2066198;28;20004;-85
2022/07/01 03:49:47;;;;;;;;;;;;;;;;;;2066176;28;19914;-84
2022/07/01 03:50:47;;;;;;;;;;;;;;;;;;2066637;28;19914;-84
2022/07/01 03:51:48;;;;;;;;;;;;;;;;;;2066176;28;20390;-84
2022/07/01 03:52:48;;;;;;;;;;;;;;;;;;2073945;28;19913;-85
2022/07/01 03:55:11;;;;;;;;;;;;;;;;;;2071619;28;20157;-84
2022/07/01 03:56:11;;;;;;;;;;;;;;;;;;2066154;28;20071;-86
2022/07/01 03:57:14;;;;;;;;;;;;;;;;;;2073948;28;20345;-86
2022/07/01 03:58:14;;;;;;;;;;;;;;;;;;2073837;28;19913;-86
2022/07/01 03:59:14;;;;;;;;;;;;;;;;;;2066411;28;20012;-86
2022/07/01 04:00:15;;;;;;;;;;;;;;;;;;2066352;28;19925;-84
2022/07/01 04:01:15;;;;;;;;;;;;;;;;;;2065844;28;19913;-84
2022/07/01 04:02:15;;;;;;;;;;;;;;;;;;2074108;28;19913;-85
2022/07/01 04:03:15;;;;;;;;;;;;;;;;;;2078085;28;19917;-85
2022/07/01 04:04:16;;;;;;;;;;;;;;;;;;2070715;28;20424;-82
2022/07/01 04:05:16;;;;;;;;;;;;;;;;;;2069746;28;19918;-83
2022/07/01 04:06:16;;;;;;;;;;;;;;;;;;2070229;28;20327;-87
2022/07/01 04:07:19;;;;;;;;;;;;;;;;;;2070792;28;19944;-83
2022/07/01 04:08:20;;;;;;;;;;;;;;;;;;2067172;28;19949;-87
2022/07/01 04:09:20;;;;;;;;;;;;;;;;;;2067304;28;19922;-86
2022/07/01 04:10:20;;;;;;;;;;;;;;;;;;2066805;28;19922;-87
2022/07/01 04:11:21;;;;;;;;;;;;;;;;;;2066700;28;20413;-90
2022/07/01 04:12:21;;;;;;;;;;;;;;;;;;2066304;28;19957;-87
2022/07/01 04:13:21;;;;;;;;;;;;;;;;;;2066547;28;19940;-86
2022/07/01 04:14:23;;;;;;;;;;;;;;;;;;2066323;28;20004;-86
2022/07/01 04:15:24;;;;;;;;;;;;;;;;;;2066381;28;19924;-85
2022/07/01 04:16:25;;;;;;;;;;;;;;;;;;2065407;28;19913;-87
2022/07/01 04:17:26;;;;;;;;;;;;;;;;;;2057879;28;19925;-90
2022/07/01 04:18:27;;;;;;;;;;;;;;;;;;2065815;28;19957;-88
2022/07/01 04:19:27;;;;;;;;;;;;;;;;;;2066484;28;19925;-87
2022/07/01 04:20:27;;;;;;;;;;;;;;;;;;2066056;28;20333;-86
2022/07/01 04:22:46;;;;;;;;;;;;;;;;;;2066368;28;19918;-84
2022/07/01 04:23:47;;;;;;;;;;;;;;;;;;2066029;28;19993;-86
2022/07/01 04:24:47;;;;;;;;;;;;;;;;;;2066461;28;20358;-85
2022/07/01 04:25:47;;;;;;;;;;;;;;;;;;2073772;28;19995;-85
2022/07/01 04:26:48;;;;;;;;;;;;;;;;;;2073332;28;19924;-84
2022/07/01 04:27:48;;;;;;;;;;;;;;;;;;2066413;28;19924;-87
2022/07/01 04:28:49;;;;;;;;;;;;;;;;;;2065913;28;19922;-86
2022/07/01 04:29:49;;;;;;;;;;;;;;;;;;2066250;28;19917;-85
2022/07/01 04:30:49;;;;;;;;;;;;;;;;;;2065972;28;19918;-87
2022/07/01 04:31:50;;;;;;;;;;;;;;;;;;2065392;28;19925;-87
2022/07/01 04:32:50;;;;;;;;;;;;;;;;;;2066295;28;19914;-84
2022/07/01 04:33:53;;;;;;;;;;;;;;;;;;2065963;28;19914;-86
2022/07/01 04:34:53;;;;;;;;;;;;;;;;;;2066248;28;19960;-86
2022/07/01 04:35:53;;;;;;;;;;;;;;;;;;2065958;28;19921;-85
2022/07/01 04:36:55;;;;;;;;;;;;;;;;;;2065578;28;19914;-85
2022/07/01 04:37:57;;;;;;;;;;;;;;;;;;2066171;28;19948;-83
2022/07/01 04:38:58;;;;;;;;;;;;;;;;;;2065792;28;19924;-85
2022/07/01 04:39:58;;;;;;;;;;;;;;;;;;2073679;28;19913;-84
2022/07/01 04:42:21;;;;;;;;;;;;;;;;;;2066153;28;19913;-85
2022/07/01 04:43:22;;;;;;;;;;;;;;;;;;2066336;28;20302;-86
2022/07/01 04:44:22;;;;;;;;;;;;;;;;;;2073589;28;19918;-88
2022/07/01 04:45:22;;;;;;;;;;;;;;;;;;2073502;28;19950;-84
2022/07/01 04:46:23;;;;;;;;;;;;;;;;;;2065594;28;19927;-85
2022/07/01 04:47:23;;;;;;;;;;;;;;;;;;2065486;28;19913;-84
2022/07/01 04:48:23;;;;;;;;;;;;;;;;;;2065966;28;19914;-86
2022/07/01 04:49:23;;;;;;;;;;;;;;;;;;2065793;28;20339;-85
2022/07/01 04:50:24;;;;;;;;;;;;;;;;;;2066344;28;19969;-85
2022/07/01 04:51:24;;;;;;;;;;;;;;;;;;2073409;28;19924;-86
2022/07/01 04:52:25;;;;;;;;;;;;;;;;;;2073530;28;20344;-85
2022/07/01 04:53:25;;;;;;;;;;;;;;;;;;2073370;28;19963;-86
2022/07/01 04:54:25;;;;;;;;;;;;;;;;;;2073436;28;20353;-85
2022/07/01 04:55:26;;;;;;;;;;;;;;;;;;2065672;28;19918;-88
2022/07/01 04:56:28;;;;;;;;;;;;;;;;;;2065935;28;19914;-86
2022/07/01 04:57:28;;;;;;;;;;;;;;;;;;2073890;28;19920;-86
2022/07/01 04:58:29;;;;;;;;;;;;;;;;;;2070416;28;20012;-86
2022/07/01 04:59:29;;;;;;;;;;;;;;;;;;2063358;28;19924;-86
2022/07/01 05:00:30;;;;;;;;;;;;;;;;;;2057975;28;19941;-86
2022/07/01 05:01:30;;;;;;;;;;;;;;;;;;2062344;28;19925;-87
2022/07/01 05:02:31;;;;;;;;;;;;;;;;;;2057592;28;20401;-87
2022/07/01 05:03:32;;;;;;;;;;;;;;;;;;2073803;28;20012;-86
2022/07/01 05:04:40;;;;;;;;;;;;;;;;;;2068754;28;20437;-88
2022/07/01 05:05:40;;;;;;;;;;;;;;;;;;2059573;28;19918;-85
2022/07/01 05:06:41;;;;;;;;;;;;;;;;;;2064879;28;19922;-87
2022/07/01 05:07:41;;;;;;;;;;;;;;;;;;2067580;28;20005;-81
2022/07/01 05:08:44;;;;;;;;;;;;;;;;;;2068297;28;19917;-80
2022/07/01 05:09:44;;;;;;;;;;;;;;;;;;2068733;28;19922;-80
2022/07/01 05:10:44;;;;;;;;;;;;;;;;;;2067254;28;19917;-79
2022/07/01 05:11:52;;;;;;;;;;;;;;;;;;2061991;28;19925;-81
2022/07/01 05:13:00;;;;;;;;;;;;;;;;;;2060855;28;20244;-80
2022/07/01 05:14:06;;;;;;;;;;;;;;;;;;2065800;28;19913;-79
2022/07/01 05:15:06;;;;;;;;;;;;;;;;;;2058485;28;19914;-80
2022/07/01 05:16:08;;;;;;;;;;;;;;;;;;2065029;28;19928;-79
2022/07/01 05:17:09;;;;;;;;;;;;;;;;;;2067661;28;19913;-80
2022/07/01 05:22:08;;;;;;;;;;;;;;;;;;2061782;28;20004;-80
2022/07/01 05:23:09;;;;;;;;;;;;;;;;;;2060963;28;19914;-80
2022/07/01 05:24:09;;;;;;;;;;;;;;;;;;2060284;28;19974;-81
2022/07/01 05:25:13;;;;;;;;;;;;;;;;;;2061111;28;19961;-81
2022/07/01 05:26:16;;;;;;;;;;;;;;;;;;2061808;28;19925;-80
2022/07/01 05:27:16;;;;;;;;;;;;;;;;;;2062651;28;19918;-87
2022/07/01 05:28:16;;;;;;;;;;;;;;;;;;2060321;28;19932;-87
2022/07/01 05:29:17;;;;;;;;;;;;;;;;;;2059757;28;19922;-86
2022/07/01 05:30:17;;;;;;;;;;;;;;;;;;2069278;28;20440;-85
2022/07/01 05:31:18;;;;;;;;;;;;;;;;;;2069367;28;19980;-89
2022/07/01 05:32:18;;;;;;;;;;;;;;;;;;2066022;28;19953;-89
2022/07/01 05:33:20;;;;;;;;;;;;;;;;;;2069971;28;20354;-87
2022/07/01 05:34:32;;;;;;;;;;;;;;;;;;2072468;28;19913;-87
2022/07/01 05:35:32;;;;;;;;;;;;;;;;;;2063625;28;19937;-86
2022/07/01 05:36:33;;;;;;;;;;;;;;;;;;2061604;28;19921;-86
2022/07/01 05:37:33;;;;;;;;;;;;;;;;;;2058028;28;20371;-86
2022/07/01 05:38:37;;;;;;;;;;;;;;;;;;2061701;28;19961;-87
2022/07/01 05:39:37;;;;;;;;;;;;;;;;;;2069007;28;19921;-88
2022/07/01 05:40:39;;;;;;;;;;;;;;;;;;2069077;28;20387;-84
2022/07/01 05:41:40;;;;;;;;;;;;;;;;;;2060566;28;19932;-88
2022/07/01 05:42:40;;;;;;;;;;;;;;;;;;2060429;28;20307;-86
2022/07/01 05:43:40;;;;;;;;;;;;;;;;;;2062059;28;19918;-87
2022/07/01 05:44:41;;;;;;;;;;;;;;;;;;2060948;28;19960;-86
2022/07/01 05:45:41;;;;;;;;;;;;;;;;;;2060859;28;19917;-88
2022/07/01 05:46:41;;;;;;;;;;;;;;;;;;2069686;28;19980;-82
2022/07/01 05:47:42;;;;;;;;;;;;;;;;;;2069154;28;19913;-80
2022/07/01 05:48:42;;;;;;;;;;;;;;;;;;2060155;28;19922;-80
2022/07/01 05:49:42;;;;;;;;;;;;;;;;;;2061513;28;19922;-80
2022/07/01 05:50:47;;;;;;;;;;;;;;;;;;2061251;28;19992;-80
2022/07/01 05:51:49;;;;;;;;;;;;;;;;;;2068487;28;19921;-80
2022/07/01 05:52:50;;;;;;;;;;;;;;;;;;2067194;28;20337;-81
2022/07/01 05:53:50;;;;;;;;;;;;;;;;;;2068379;28;19929;-79
2022/07/01 05:54:51;;;;;;;;;;;;;;;;;;2067513;28;19975;-80
2022/07/01 05:55:51;;;;;;;;;;;;;;;;;;2069262;28;19936;-79
2022/07/01 05:56:51;;;;;;;;;;;;;;;;;;2072398;28;20374;-80
2022/07/01 05:57:52;;;;;;;;;;;;;;;;;;2072531;28;20338;-80
2022/07/01 05:58:53;;;;;;;;;;;;;;;;;;2064356;28;19918;-80
2022/07/01 05:59:53;;;;;;;;;;;;;;;;;;2056564;28;19953;-80
2022/07/01 06:00:54;;;;;;;;;;;;;;;;;;2059615;28;20366;-80
2022/07/01 06:01:54;;;;;;;;;;;;;;;;;;2061042;28;19968;-80
2022/07/01 06:02:54;;;;;;;;;;;;;;;;;;2058081;28;19914;-80
2022/07/01 06:03:55;;;;;;;;;;;;;;;;;;2060432;28;19973;-80
2022/07/01 06:04:59;;;;;;;;;;;;;;;;;;2063357;28;20059;-80
2022/07/01 06:05:59;;;;;;;;;;;;;;;;;;2071472;28;19914;-82
2022/07/01 06:06:59;;;;;;;;;;;;;;;;;;2064801;28;19913;-80
2022/07/01 06:08:00;;;;;;;;;;;;;;;;;;2057190;28;20424;-80
2022/07/01 06:09:03;;;;;;;;;;;;;;;;;;2061786;28;20060;-80
2022/07/01 06:10:03;;;;;;;;;;;;;;;;;;2057217;28;19929;-80
2022/07/01 06:11:03;;;;;;;;;;;;;;;;;;2056759;28;19914;-80
2022/07/01 06:12:04;;;;;;;;;;;;;;;;;;2064819;28;19914;-79
2022/07/01 06:13:05;;;;;;;;;;;;;;;;;;2064850;28;19948;-80
2022/07/01 06:14:05;;;;;;;;;;;;;;;;;;2056925;28;20541;-79
2022/07/01 06:15:07;;;;;;;;;;;;;;;;;;2057253;28;20323;-80
2022/07/01 06:16:08;;;;;;;;;;;;;;;;;;2057279;28;19915;-80
2022/07/01 06:17:09;;;;;;;;;;;;;;;;;;2057317;28;19914;-80
2022/07/01 06:18:09;;;;;;;;;;;;;;;;;;2057345;28;19918;-80
2022/07/01 06:19:09;;;;;;;;;;;;;;;;;;2063774;28;19921;-81
2022/07/01 06:20:12;;;;;;;;;;;;;;;;;;2063892;28;20390;-81
2022/07/01 06:21:12;;;;;;;;;;;;;;;;;;2056523;28;19914;-80
2022/07/01 06:22:16;;;;;;;;;;;;;;;;;;2061903;28;19976;-80
2022/07/01 06:23:16;;;;;;;;;;;;;;;;;;2059406;28;19925;-80
2022/07/01 06:24:16;;;;;;;;;;;;;;;;;;2065130;28;20666;-81
2022/07/01 06:25:17;;;;;;;;;;;;;;;;;;2064685;28;19948;-80
2022/07/01 06:26:19;;;;;;;;;;;;;;;;;;2061292;28;19976;-79
2022/07/01 06:27:20;;;;;;;;;;;;;;;;;;2058150;28;19921;-82
2022/07/01 06:28:20;;;;;;;;;;;;;;;;;;2059378;28;19928;-80
2022/07/01 06:29:20;;;;;;;;;;;;;;;;;;2072109;28;20267;-79
2022/07/01 06:30:20;;;;;;;;;;;;;;;;;;2065027;28;19917;-81
2022/07/01 06:31:23;;;;;;;;;;;;;;;;;;2067278;28;19928;-79
2022/07/01 06:32:23;;;;;;;;;;;;;;;;;;2059469;28;19937;-79
2022/07/01 06:33:25;;;;;;;;;;;;;;;;;;2058591;28;19949;-80
2022/07/01 06:34:25;;;;;;;;;;;;;;;;;;2072731;28;19913;-79
2022/07/01 06:35:25;;;;;;;;;;;;;;;;;;2065672;28;20276;-80
2022/07/01 06:36:26;;;;;;;;;;;;;;;;;;2056511;28;19914;-81
2022/07/01 06:37:26;;;;;;;;;;;;;;;;;;2063145;28;20652;-80
2022/07/01 06:38:28;;;;;;;;;;;;;;;;;;2064398;28;19914;-80
2022/07/01 06:39:29;;;;;;;;;;;;;;;;;;2054441;28;20009;-80
2022/07/01 06:40:39;;;;;;;;;;;;;;;;;;2057422;28;19957;-80
2022/07/01 06:41:39;;;;;;;;;;;;;;;;;;2065023;28;19917;-80
2022/07/01 06:42:39;;;;;;;;;;;;;;;;;;2056768;28;20344;-81
2022/07/01 06:43:40;;;;;;;;;;;;;;;;;;2055404;28;19918;-80
2022/07/01 06:44:40;;;;;;;;;;;;;;;;;;2064000;28;20129;-80
2022/07/01 06:45:40;;;;;;;;;;;;;;;;;;2072412;28;20413;-81
2022/07/01 06:46:41;;;;;;;;;;;;;;;;;;2063232;28;19924;-81
2022/07/01 06:47:41;;;;;;;;;;;;;;;;;;2052005;28;20279;-80
2022/07/01 06:48:41;;;;;;;;;;;;;;;;;;2063729;28;20008;-80
2022/07/01 06:49:42;;;;;;;;;;;;;;;;;;2064754;28;19913;-79
2022/07/01 06:50:44;;;;;;;;;;;;;;;;;;2064433;28;19929;-80
2022/07/01 06:51:45;;;;;;;;;;;;;;;;;;2057112;28;19915;-81
2022/07/01 06:52:45;;;;;;;;;;;;;;;;;;2057464;28;19968;-81
2022/07/01 06:53:46;;;;;;;;;;;;;;;;;;2057272;28;19945;-81
2022/07/01 06:54:46;;;;;;;;;;;;;;;;;;2057254;28;19914;-80
2022/07/01 06:55:47;;;;;;;;;;;;;;;;;;2061088;28;19977;-80
2022/07/01 06:56:47;;;;;;;;;;;;;;;;;;2060053;28;20390;-80
2022/07/01 06:57:47;;;;;;;;;;;;;;;;;;2057741;28;19949;-81
2022/07/01 06:58:47;;;;;;;;;;;;;;;;;;2058241;28;19914;-81
2022/07/01 06:59:49;;;;;;;;;;;;;;;;;;2061708;28;19917;-79
2022/07/01 07:00:49;;;;;;;;;;;;;;;;;;2066490;28;19913;-80
2022/07/01 07:01:49;;;;;;;;;;;;;;;;;;2066399;28;19975;-81
2022/07/01 07:02:49;;;;;;;;;;;;;;;;;;2064077;28;19914;-81
2022/07/01 07:03:50;;;;;;;;;;;;;;;;;;2058363;28;19925;-80
2022/07/01 07:04:50;;;;;;;;;;;;;;;;;;2058369;28;19918;-80
2022/07/01 07:05:52;;;;;;;;;;;;;;;;;;2058235;28;19914;-81
2022/07/01 07:06:52;;;;;;;;;;;;;;;;;;2065822;28;19918;-85
2022/07/01 07:07:52;;;;;;;;;;;;;;;;;;2065935;28;19999;-80
2022/07/01 07:08:55;;;;;;;;;;;;;;;;;;2061296;28;19924;-80